Latest Coastal Weather Observations for Coffs Harbour

IDN60701

Issued at 11:35 am EDT Sunday 26 October 2014 (issued every 10 minutes, with the page automatically refreshed every 10 minutes)

About coastal observations | Map of coastal stations | Coastal observations for NSW | Marine services | Other Formats
Station Details ID: 059040 Name: COFFS HARBOUR MO Lat: -30.31 Lon: 153.12 Height: 5.0 m
Data from the previous 72 hours. | See also: Recent months at Coffs Harbour
Date/Time
EDT
Temp

°C
Wind Pressure Rain
since 9am
mm
Weather Cloud Vis
km
Sea
Height
m
Swell
Dir
 
Speed
knots
Gust
knots
hPa Trend Height
m
Period
s
Dir
26/11:30am 25.4 NNE 21 28 1012.2 - 0.0 - - 10 - - - -
26/11:00am 25.6 NNE 20 25 1012.7 - 0.0 - - 10 - - - -
26/10:30am 25.6 NE 17 21 1013.2 - 0.0 - - 10 - - - -
26/10:00am 25.5 NE 16 20 1013.4 - 0.0 - - 10 - - - -
26/09:30am 25.0 NE 15 18 1013.7 - 0.0 - - 10 - - - -
26/09:00am 24.0 NNE 10 14 1013.9 F 0.0 Haze Mostly clear 15 - - - -
26/08:00am 21.1 E 3 4 1014.3 - 0.0 - - 10 - - - -
26/07:30am 21.1 ENE 1 4 1014.3 - 0.0 - - 10 - - - -
26/07:00am 17.3 N 3 4 1014.4 - 0.0 - - 10 - - - -
26/06:30am 15.0 NNE 1 4 1014.2 - 0.0 - - 10 - - - -
26/06:00am 15.2 SW 1 3 1014.3 F 0.0 Fine Partly cloudy 40 - - - -
26/05:30am 15.7 CALM 0 0 1013.7 - 0.0 - - 10 - - - -
26/05:00am 16.3 NW 4 5 1013.6 - 0.0 - - 10 - - - -
26/04:30am 16.6 CALM 0 0 1013.6 - 0.0 - - 10 - - - -
26/04:00am 17.2 N 4 5 1013.5 - 0.0 - - 10 - - - -
26/03:30am 17.0 NNE 6 7 1013.5 - 0.0 - - 10 - - - -
26/03:00am 17.2 N 4 5 1013.9 - 0.0 - - 10 - - - -
26/02:30am 17.1 CALM 0 4 1014.2 - 0.0 - - 10 - - - -
26/02:00am 16.3 CALM 0 0 1014.6 - 0.0 - - 10 - - - -
26/01:30am 16.7 N 2 4 1015.0 - 0.0 - - 10 - - - -
26/01:00am 16.5 SSE 1 5 1015.1 - 0.0 - - 10 - - - -
26/12:30am 17.0 SW 5 6 1015.8 - 0.0 - - 10 - - - -
26/12:00am 17.2 W 0 0 1015.8 - 0.0 - - 10 - - - -
 
Date/Time
EDT
Temp

°C
Wind Pressure Rain
since 9am
mm
Weather Cloud Vis
km
Sea
Height
m
Swell
Dir
 
Speed
knots
Gust
knots
hPa Trend Height
m
Period
s
Dir
25/11:30pm 17.2 CALM 0 0 1016.1 - 0.0 - - 10 - - - -
25/11:00pm 17.7 CALM 0 0 1016.0 - 0.0 - - 10 - - - -
25/10:30pm 18.2 CALM 0 0 1015.9 - 0.0 - - 10 - - - -
25/10:00pm 18.5 CALM 0 0 1016.0 - 0.0 - - 10 - - - -
25/09:30pm 18.7 N 4 5 1015.6 - 0.0 - - 10 - - - -
25/09:00pm 19.6 N 1 4 1015.5 - 0.0 - - 7 - - - -
25/08:30pm 20.0 N 4 4 1015.3 - 0.0 - - 7 - - - -
25/08:00pm 20.9 N 6 7 1014.9 - 0.0 - - 7 - - - -
25/07:44pm 20.8 N 6 7 1014.8 - 0.0 - - 7 - - - -
25/07:30pm 21.2 NNE 7 8 1014.6 - 0.0 - - 6 - - - -
25/07:28pm 21.2 NNE 6 8 1014.5 - 0.0 - - 6 - - - -
25/07:00pm 22.2 NNE 7 9 1014.1 - 0.0 - - 8 - - - -
25/06:30pm 23.9 NE 7 9 1013.8 - 0.0 - - 10 - - - -
25/06:00pm 25.2 NNE 7 9 1013.6 - 0.0 - - 10 - - - -
25/05:30pm 26.2 NNE 7 10 1013.5 - 0.0 - - 10 - - - -
25/05:00pm 26.7 NE 7 8 1013.5 - 0.0 - - 10 - - - -
25/04:30pm 26.2 NE 9 10 1013.5 - 0.0 - - 10 - - - -
25/04:00pm 26.6 NE 9 13 1013.6 - 0.0 - - 10 - - - -
25/03:30pm 25.8 NE 13 16 1013.6 - 0.0 - - 10 - - - -
25/03:00pm 25.6 NNE 16 20 1013.9 R 0.0 Haze Mostly clear 30 - - - -
25/02:30pm 24.1 NE 17 20 1014.1 - 0.0 - - 10 - - - -
25/02:00pm 23.9 NE 20 26 1013.9 - 0.0 - - 10 - - - -
25/01:30pm 24.0 NE 18 25 1014.0 - 0.0 - - 10 - - - -
25/01:00pm 24.3 NE 19 26 1014.0 - 0.0 - - 10 - - - -
25/12:30pm 25.5 NE 16 20 1014.0 - 0.0 - - 10 - - - -
25/12:00pm 25.3 NE 17 21 1014.6 - 0.0 - - 10 - - - -
25/11:30am 25.0 NE 18 25 1014.8 - 0.0 - - 10 - - - -
25/11:00am 25.3 NE 17 22 1015.1 - 0.0 - - 10 - - - -
25/10:30am 24.0 NE 15 21 1015.4 - 0.0 - - 10 - - - -
25/10:00am 25.4 NE 14 17 1015.6 - 0.0 - - 10 - - - -
25/09:30am 24.4 NNE 12 15 1015.8 - 0.0 - - 10 - - - -
25/09:00am 22.7 NNE 16 19 1016.2 F 0.0 Haze Clear 30 - - - -
25/08:30am 21.2 NNE 15 18 1016.3 - 0.0 - - 10 - - - -
25/08:00am 19.4 NNE 17 21 1016.6 - 0.0 - - 10 - - - -
25/07:30am 18.9 NNE 15 21 1016.5 - 0.0 - - 10 - - - -
25/07:00am 18.3 NE 14 19 1016.7 - 0.0 - - 10 - - - -
25/06:30am 17.9 NNE 14 18 1016.3 - 0.0 - - 10 - - - -
25/06:00am 18.4 NNE 13 16 1016.1 - 0.0 - - 10 - - - -
25/05:30am 18.5 NNE 13 18 1015.9 - 0.0 - - 10 - - - -
25/05:00am 18.6 NNE 8 11 1015.9 - 0.0 - - 10 - - - -
25/04:30am 18.4 NNE 6 8 1015.7 - 0.0 - - 10 - - - -
25/04:00am 19.3 N 8 10 1015.1 - 0.0 - - 10 - - - -
25/03:30am 19.7 N 8 10 1015.0 - 0.0 - - 10 - - - -
25/03:00am 19.8 N 13 16 1015.3 - 0.0 - - 10 - - - -
25/02:30am 19.6 N 10 14 1015.7 - 0.0 - - 10 - - - -
25/02:00am 19.3 NNE 7 10 1016.2 - 0.0 - - 10 - - - -
25/01:30am 19.4 N 9 13 1016.7 - 0.0 - - 10 - - - -
25/01:00am 19.5 N 12 15 1017.4 - 0.0 - - 10 - - - -
25/12:30am 19.7 N 15 19 1018.0 - 0.0 - - 10 - - - -
25/12:00am 19.9 N 15 20 1018.8 - 0.0 - - 10 - - - -
 
Date/Time
EDT
Temp

°C
Wind Pressure Rain
since 9am
mm
Weather Cloud Vis
km
Sea
Height
m
Swell
Dir
 
Speed
knots
Gust
knots
hPa Trend Height
m
Period
s
Dir
24/11:30pm 19.9 N 10 17 1019.1 - 0.0 - Partly cloudy 10 - - - -
24/11:00pm 20.2 N 18 22 1019.3 - 0.0 - - 10 - - - -
24/10:30pm 20.2 N 14 17 1019.9 - 0.0 - Partly cloudy 10 - - - -
24/10:00pm 20.3 N 15 20 1020.3 - 0.0 - - 10 - - - -
24/09:30pm 20.3 N 18 24 1020.4 - 0.0 - - 10 - - - -
24/09:00pm 20.3 N 16 19 1020.4 - 0.0 - - 10 - - - -
24/08:30pm 20.2 N 13 17 1020.0 - 0.0 - - 10 - - - -
24/08:00pm 20.3 N 14 18 1019.7 - 0.0 - - 10 - - - -
24/07:30pm 20.5 NNE 16 20 1019.4 - 0.0 - - 10 - - - -
24/07:00pm 20.7 NNE 19 26 1019.2 - 0.0 - - 10 - - - -
24/06:30pm 21.2 NNE 18 25 1019.0 - 0.0 - - 10 - - - -
24/06:00pm 21.5 NNE 19 27 1018.7 - 0.0 - - 10 - - - -
24/05:30pm 21.9 NNE 20 26 1018.6 - 0.0 - - 10 - - - -
24/05:00pm 21.7 NNE 18 27 1018.7 - 0.0 - - 10 - - - -
24/04:30pm 22.2 NNE 20 27 1018.7 - 0.0 - - 10 - - - -
24/04:06pm 22.7 NNE 20 30 1018.4 - 0.0 - - 10 - - - -
24/04:00pm 23.2 NNE 22 30 1018.5 - 0.0 - - 10 - - - -
24/03:30pm 23.3 NNE 20 27 1018.8 - 0.0 - - 10 - - - -
24/03:00pm 23.2 NNE 18 24 1019.2 - 0.0 - - 10 - - - -
24/02:30pm 24.1 NNE 18 25 1019.5 - 0.0 - - 10 - - - -
24/02:00pm 24.0 NNE 19 28 1019.8 - 0.0 - - 10 - - - -
24/01:54pm 24.3 NE 18 28 1019.9 - 0.0 - - 10 - - - -
24/01:30pm 23.7 NE 19 28 1020.0 - 0.0 - - 10 - - - -
24/01:00pm 24.0 NNE 18 25 1020.3 - 0.0 - - 10 - - - -
24/12:44pm 24.3 NNE 19 29 1020.4 - 0.0 - - 10 - - - -
24/12:30pm 24.1 NNE 19 24 1020.5 - 0.0 - - 10 - - - -
24/12:00pm 23.3 NNE 17 22 1020.9 - 0.0 - - 10 - - - -
24/11:30am 22.7 NE 15 20 1021.3 - 0.0 - - 10 - - - -
24/11:00am 23.1 NE 15 19 1021.6 - 0.0 - - 10 - - - -
24/10:30am 23.1 NE 13 17 1021.8 - 0.0 - - 10 - - - -
24/10:00am 23.9 NE 12 17 1021.9 - 0.0 - - 10 - - - -
24/09:30am 23.5 N 10 14 1021.8 - 0.0 - - 10 - - - -
24/09:00am 22.5 N 10 14 1022.0 - 0.0 - - 10 - - - -
24/08:30am 21.5 N 7 9 1021.6 - 0.0 - - 10 - - - -
24/08:00am 20.3 N 5 8 1021.6 - 0.0 - - 10 - - - -
24/07:30am 19.1 N 5 6 1021.5 - 0.0 - - 10 - - - -
24/07:00am 17.4 N 4 5 1021.3 - 0.0 - - 10 - - - -
24/06:30am 15.7 N 4 5 1021.0 - 0.0 - - 10 - - - -
24/06:00am 15.4 NNW 5 5 1020.6 - 0.0 - - 10 - - - -
24/05:30am 15.9 N 5 7 1020.2 - 0.0 - - 10 - - - -
24/05:00am 16.5 NNW 5 6 1019.8 - 0.0 - - 10 - - - -
24/04:30am 17.1 NNW 5 8 1019.6 - 0.0 - - 10 - - - -
24/04:00am 17.8 N 9 12 1019.5 - 0.0 - - 10 - - - -
24/03:30am 18.0 NNW 7 10 1019.7 - 0.0 - - 10 - - - -
24/03:00am 18.0 NNW 7 8 1019.8 - 0.0 - - 10 - - - -
24/02:30am 18.2 N 8 13 1019.8 - 0.0 - - 10 - - - -
24/02:00am 18.7 N 8 11 1020.1 - 0.0 - - 10 - - - -
24/01:30am 19.2 N 9 13 1020.2 - 0.0 - - 10 - - - -
24/01:00am 19.0 N 9 12 1020.5 - 0.0 - - 10 - - - -
24/12:30am 19.5 N 9 13 1020.5 - 0.0 - - 10 - - - -
24/12:00am 19.6 N 9 13 1020.7 - 0.0 - - 10 - - - -
 
Date/Time
EDT
Temp

°C
Wind Pressure Rain
since 9am
mm
Weather Cloud Vis
km
Sea
Height
m
Swell
Dir
 
Speed
knots
Gust
knots
hPa Trend Height
m
Period
s
Dir
23/11:30pm 19.4 N 11 15 1020.7 - 0.0 - - 10 - - - -
23/11:00pm 19.2 N 8 10 1020.8 - 0.0 - - 10 - - - -
23/10:30pm 19.2 NNE 9 11 1020.7 - 0.0 - - 10 - - - -
23/10:00pm 19.3 NNE 9 11 1020.3 - 0.0 - - 10 - - - -
23/09:30pm 19.2 NNE 9 11 1019.9 - 0.0 - - 10 - - - -
23/09:00pm 19.6 NNE 8 11 1019.8 - 0.0 - - 10 - - - -
23/08:30pm 19.8 NNE 12 15 1019.5 - 0.0 - - 10 - - - -
23/08:00pm 19.9 NNE 13 17 1019.0 - 0.0 - - 10 - - - -
23/07:30pm 20.2 NNE 11 14 1018.5 - 0.0 - - 10 - - - -
23/07:00pm 20.6 NNE 11 15 1018.3 - 0.0 - - 10 - - - -
23/06:30pm 21.2 NNE 13 16 1018.1 - 0.0 - - 10 - - - -
23/06:00pm 21.3 NNE 12 16 1017.9 - 0.0 - - 10 - - - -
23/05:30pm 21.4 NNE 12 17 1017.3 - 0.0 - - 10 - - - -
23/05:00pm 21.5 NNE 14 18 1017.4 - 0.0 - - 10 - - - -
23/04:30pm 21.5 NNE 15 20 1017.1 - 0.0 - - 10 - - - -
23/04:00pm 22.3 NNE 17 22 1017.0 - 0.0 - - 10 - - - -
23/03:30pm 21.4 NNE 17 23 1016.9 - 0.0 - - 10 - - - -
23/03:00pm 21.6 NE 17 26 1016.8 F 0.0 Haze Partly cloudy 20 - - - -
23/02:30pm 22.6 NE 20 25 1017.1 - 0.0 - - 10 - - - -
23/02:00pm 23.0 NE 20 27 1017.2 - 0.0 - - 10 - - - -
23/01:30pm 23.1 NE 19 23 1017.4 - 0.0 - - 10 - - - -
23/01:00pm 23.8 NE 19 23 1018.0 - 0.0 - - 10 - - - -
23/12:30pm 23.6 NE 18 24 1018.3 - 0.0 - - 10 - - - -
23/12:00pm 24.0 NE 17 20 1018.7 - 0.0 - - 10 - - - -

Other Formats:

Comma delimited format used in spreadsheet applications
http://www.bom.gov.au/fwo/IDN60701/IDN60701.94791.axf

JavaScript Object Notation format (JSON) in row-major order
http://www.bom.gov.au/fwo/IDN60701/IDN60701.94791.json